Time;durP1;ratioP1;P1;durP2;ratioP2;P2;SDS_P1;SDS_P2;PMS_P1;PMS_P2;Temp;Humidity;BMP_temperature;BMP_pressure;BME280_temperature;BME280_humidity;BME280_pressure;Samples;Min_cycle;Max_cycle;Signal;HPM_P1;HPM_P2
2023/12/19 00:00:58;;;;;;;;;;;;;;;4.38;62.16;100392.31;4514312;31;34395;-86
2023/12/19 00:03:26;;;;;;;;;;;;;;;4.27;62.45;100391.69;4509719;31;33460;-87
2023/12/19 00:05:53;;;;;;;;;;;;;;;4.33;62.32;100386.91;4501370;31;34096;-86
2023/12/19 00:08:20;;;;;;;;;;;;;;;4.27;62.55;100381.41;4505870;31;35127;-89
2023/12/19 00:10:48;;;;;;;;;;;;;;;4.34;62.67;100378.41;4498703;31;33398;-89
2023/12/19 00:13:16;;;;;;;;;;;;;;;4.30;62.59;100376.47;4498401;31;33499;-86
2023/12/19 00:15:43;;;;;;;;;;;;;;;4.31;62.68;100377.34;4498821;31;34591;-87
2023/12/19 00:18:11;;;;;;;;;;;;;;;4.32;62.83;100380.03;4504176;31;33559;-87
2023/12/19 00:20:38;;;;;;;;;;;;;;;4.44;62.24;100384.97;4498339;31;34156;-84
2023/12/19 00:23:05;;;;;;;;;;;;;;;4.43;62.28;100379.72;4503293;31;33596;-88
2023/12/19 00:25:33;;;;;;;;;;;;;;;4.22;62.96;100381.97;4498627;31;34283;-85
2023/12/19 00:28:00;;;;;;;;;;;;;;;3.59;63.82;100376.59;4504943;31;34137;-88
2023/12/19 00:30:27;;;;;;;;;;;;;;;4.06;62.91;100380.22;4509397;31;34819;-86
2023/12/19 00:32:55;;;;;;;;;;;;;;;4.02;62.58;100384.28;4509273;31;33056;-86
2023/12/19 00:35:23;;;;;;;;;;;;;;;4.13;61.95;100387.47;4503241;31;34891;-88
2023/12/19 00:37:50;;;;;;;;;;;;;;;4.19;61.50;100382.66;4502496;31;35030;-89
2023/12/19 00:40:18;;;;;;;;;;;;;;;4.12;61.81;100391.69;4513765;31;34469;-85
2023/12/19 00:42:45;;;;;;;;;;;;;;;4.03;61.84;100386.03;4510780;31;33546;-86
2023/12/19 00:45:13;;;;;;;;;;;;;;;3.98;62.20;100386.53;4494079;31;33929;-84
2023/12/19 00:47:40;;;;;;;;;;;;;;;4.10;61.71;100388.16;4510647;31;33995;-84
2023/12/19 00:50:07;;;;;;;;;;;;;;;3.93;61.91;100395.66;4508784;31;35145;-84
2023/12/19 00:52:35;;;;;;;;;;;;;;;4.15;61.17;100398.69;4504080;31;33741;-86
2023/12/19 00:55:03;;;;;;;;;;;;;;;4.06;61.39;100396.47;4492669;31;34187;-85
2023/12/19 00:57:32;;;;;;;;;;;;;;;4.17;60.87;100404.81;4509100;31;34387;-88
2023/12/19 00:59:59;;;;;;;;;;;;;;;4.13;60.79;100396.03;4503646;31;34140;-86
2023/12/19 01:02:27;;;;;;;;;;;;;;;4.04;60.88;100387.78;4498716;31;33994;-86
2023/12/19 01:04:57;;;;;;;;;;;;;;;4.01;61.17;100385.03;4512382;31;34014;-86
2023/12/19 01:07:25;;;;;;;;;;;;;;;3.96;61.61;100381.34;4512145;31;35150;-86
2023/12/19 01:09:52;;;;;;;;;;;;;;;4.06;61.42;100383.66;4513556;31;34152;-87
2023/12/19 01:12:20;;;;;;;;;;;;;;;4.14;61.16;100384.09;4497684;31;33164;-88
2023/12/19 01:14:47;;;;;;;;;;;;;;;4.03;61.50;100388.59;4507869;31;33885;-85
2023/12/19 01:17:15;;;;;;;;;;;;;;;3.85;62.71;100382.38;4507036;31;34143;-85
2023/12/19 01:19:42;;;;;;;;;;;;;;;3.77;63.35;100384.50;4509981;31;34969;-86
2023/12/19 01:22:09;;;;;;;;;;;;;;;3.90;63.19;100389.56;4511666;31;34047;-86
2023/12/19 01:24:37;;;;;;;;;;;;;;;3.58;64.30;100390.22;4507176;31;33993;-85
2023/12/19 01:27:06;;;;;;;;;;;;;;;3.69;64.38;100388.28;4514898;31;34766;-86
2023/12/19 01:29:33;;;;;;;;;;;;;;;3.78;64.37;100391.41;4508106;31;35157;-88
2023/12/19 01:32:00;;;;;;;;;;;;;;;3.38;65.49;100391.59;4510264;31;33380;-85
2023/12/19 01:34:27;;;;;;;;;;;;;;;3.65;64.84;100388.91;4492283;31;33776;-88
2023/12/19 01:36:55;;;;;;;;;;;;;;;3.38;65.85;100390.69;4515706;31;34587;-85
2023/12/19 01:39:24;;;;;;;;;;;;;;;3.19;66.30;100393.81;4512279;31;34130;-84
2023/12/19 01:41:53;;;;;;;;;;;;;;;3.48;65.42;100387.88;4501545;31;33649;-88
2023/12/19 01:44:21;;;;;;;;;;;;;;;3.60;65.17;100382.63;4508417;31;34004;-85
2023/12/19 01:46:48;;;;;;;;;;;;;;;3.80;64.64;100370.97;4511761;31;35039;-86
2023/12/19 01:49:15;;;;;;;;;;;;;;;3.65;64.99;100360.69;4500101;31;34941;-86
2023/12/19 01:51:43;;;;;;;;;;;;;;;3.30;65.82;100362.03;4489374;31;33692;-87
2023/12/19 01:54:10;;;;;;;;;;;;;;;2.56;68.11;100358.25;4503909;31;34946;-86
2023/12/19 01:56:38;;;;;;;;;;;;;;;2.72;67.72;100353.31;4496559;31;34218;-86
2023/12/19 01:59:06;;;;;;;;;;;;;;;3.06;66.83;100340.91;4498578;31;34849;-84
2023/12/19 02:01:36;;;;;;;;;;;;;;;3.26;66.01;100339.59;4502335;31;33738;-86
2023/12/19 02:04:04;;;;;;;;;;;;;;;3.32;65.88;100329.69;4495883;31;35020;-86
2023/12/19 02:06:33;;;;;;;;;;;;;;;3.06;66.54;100329.78;4501203;31;34871;-85
2023/12/19 02:09:01;;;;;;;;;;;;;;;2.78;67.58;100343.47;4513960;31;34047;-86
2023/12/19 02:11:28;;;;;;;;;;;;;;;2.81;67.28;100332.53;4514024;31;33952;-85
2023/12/19 02:13:58;;;;;;;;;;;;;;;2.49;67.82;100323.69;4513606;31;34465;-86
2023/12/19 02:16:26;;;;;;;;;;;;;;;2.52;68.14;100323.00;4499721;31;35238;-85
2023/12/19 02:19:00;;;;;;;;;;;;;;;2.89;66.81;100300.59;4513271;31;34750;-84
2023/12/19 02:21:28;;;;;;;;;;;;;;;2.95;66.63;100310.31;4501998;31;33185;-91
2023/12/19 02:23:56;;;;;;;;;;;;;;;2.97;66.71;100322.44;4507599;31;34692;-88
2023/12/19 02:26:23;;;;;;;;;;;;;;;2.19;68.90;100327.75;4491600;31;34044;-85
2023/12/19 02:28:52;;;;;;;;;;;;;;;2.43;67.94;100313.97;4498141;31;34197;-86
2023/12/19 02:31:20;;;;;;;;;;;;;;;2.42;68.26;100319.88;4508119;31;34617;-85
2023/12/19 02:33:47;;;;;;;;;;;;;;;2.16;68.39;100314.78;4503447;31;33798;-85
2023/12/19 02:36:16;;;;;;;;;;;;;;;2.13;69.23;100312.03;4504006;31;35160;-89
2023/12/19 02:38:43;;;;;;;;;;;;;;;2.48;68.31;100323.62;4500198;31;35129;-87
2023/12/19 02:41:10;;;;;;;;;;;;;;;2.67;68.00;100311.19;4496985;31;32798;-86
2023/12/19 02:43:38;;;;;;;;;;;;;;;2.17;69.09;100313.97;4511153;31;33640;-85
2023/12/19 02:46:21;;;;;;;;;;;;;;;2.30;69.43;100311.41;4494419;31;34320;-85
2023/12/19 02:48:49;;;;;;;;;;;;;;;2.01;70.47;100324.91;4499335;31;33917;-85
2023/12/19 02:51:17;;;;;;;;;;;;;;;2.37;68.83;100323.81;4501546;31;32921;-85
2023/12/19 02:53:44;;;;;;;;;;;;;;;2.51;68.45;100321.25;4485051;31;33373;-85
2023/12/19 02:56:12;;;;;;;;;;;;;;;2.57;68.34;100327.63;4507573;31;34879;-91
2023/12/19 02:58:40;;;;;;;;;;;;;;;2.46;68.56;100317.50;4514132;31;33786;-85
2023/12/19 03:01:07;;;;;;;;;;;;;;;2.09;69.81;100312.63;4492771;31;34204;-85
2023/12/19 03:03:35;;;;;;;;;;;;;;;1.86;70.56;100314.56;4511101;31;35263;-85
2023/12/19 03:06:02;;;;;;;;;;;;;;;1.96;69.88;100318.59;4499018;31;34187;-85
2023/12/19 03:08:30;;;;;;;;;;;;;;;2.19;69.35;100322.63;4499178;31;35295;-85
2023/12/19 03:10:58;;;;;;;;;;;;;;;2.06;69.88;100320.97;4501769;31;33027;-87
2023/12/19 03:13:26;;;;;;;;;;;;;;;1.92;70.73;100304.72;4509653;31;33870;-85
2023/12/19 03:15:53;;;;;;;;;;;;;;;2.37;69.32;100298.22;4501092;31;34931;-86
2023/12/19 03:18:24;;;;;;;;;;;;;;;2.30;69.47;100305.41;4502528;31;34039;-86
2023/12/19 03:20:53;;;;;;;;;;;;;;;2.37;68.98;100298.22;4498954;31;33116;-86
2023/12/19 03:23:23;;;;;;;;;;;;;;;2.13;69.19;100289.88;4494460;31;32579;-86
2023/12/19 03:25:50;;;;;;;;;;;;;;;1.70;70.15;100291.31;4484437;31;35184;-86
2023/12/19 03:28:18;;;;;;;;;;;;;;;1.84;70.41;100295.66;4507645;31;34494;-86
2023/12/19 03:30:45;;;;;;;;;;;;;;;1.97;69.57;100299.91;4510987;31;34075;-86
2023/12/19 03:33:14;;;;;;;;;;;;;;;1.45;70.75;100289.69;4506873;31;35507;-86
2023/12/19 03:35:41;;;;;;;;;;;;;;;1.62;70.37;100289.91;4513509;31;34379;-86
2023/12/19 03:38:08;;;;;;;;;;;;;;;1.45;71.10;100296.47;4513576;31;34702;-86
2023/12/19 03:40:36;;;;;;;;;;;;;;;1.22;71.65;100302.59;4507098;31;33604;-84
2023/12/19 03:43:04;;;;;;;;;;;;;;;0.85;72.57;100305.19;4507627;31;33992;-85
2023/12/19 03:45:31;;;;;;;;;;;;;;;0.51;73.81;100301.94;4503486;31;34085;-85
2023/12/19 03:47:59;;;;;;;;;;;;;;;0.89;72.82;100296.94;4513257;31;34061;-86
2023/12/19 03:50:26;;;;;;;;;;;;;;;0.95;73.14;100299.94;4509329;31;33139;-85
2023/12/19 03:52:53;;;;;;;;;;;;;;;0.76;74.19;100302.00;4512384;31;34677;-87
2023/12/19 03:55:23;;;;;;;;;;;;;;;0.67;74.26;100298.78;4513625;31;35064;-85
2023/12/19 03:57:50;;;;;;;;;;;;;;;0.97;73.83;100290.69;4509955;31;34061;-85
2023/12/19 04:00:18;;;;;;;;;;;;;;;0.96;74.08;100288.06;4504912;31;33641;-88
2023/12/19 04:02:46;;;;;;;;;;;;;;;0.76;74.74;100293.44;4508733;31;34100;-87
2023/12/19 04:05:13;;;;;;;;;;;;;;;1.04;73.85;100292.00;4506733;31;35167;-87
2023/12/19 04:07:40;;;;;;;;;;;;;;;1.02;74.74;100292.66;4504019;31;33970;-86
2023/12/19 04:10:08;;;;;;;;;;;;;;;0.69;75.84;100302.34;4506963;31;33816;-87
2023/12/19 04:12:35;;;;;;;;;;;;;;;0.70;76.35;100304.09;4494268;31;33832;-87
2023/12/19 04:15:03;;;;;;;;;;;;;;;0.44;77.47;100295.50;4510210;31;33993;-86
2023/12/19 04:17:31;;;;;;;;;;;;;;;0.76;75.47;100302.00;4498326;31;34433;-85
2023/12/19 04:19:58;;;;;;;;;;;;;;;1.12;75.24;100300.19;4500859;31;32998;-86
2023/12/19 04:22:25;;;;;;;;;;;;;;;1.01;75.34;100302.00;4486971;31;34144;-86
2023/12/19 04:24:53;;;;;;;;;;;;;;;1.14;75.40;100303.75;4508587;31;35064;-85
2023/12/19 04:27:20;;;;;;;;;;;;;;;0.99;76.49;100312.91;4506454;31;34336;-85
2023/12/19 04:29:47;;;;;;;;;;;;;;;1.17;75.60;100314.16;4498292;31;33576;-84
2023/12/19 04:32:15;;;;;;;;;;;;;;;1.34;75.00;100293.19;4505737;31;34837;-84
2023/12/19 04:34:42;;;;;;;;;;;;;;;1.06;76.05;100309.97;4499548;31;35107;-89
2023/12/19 04:37:10;;;;;;;;;;;;;;;1.07;75.42;100306.66;4499599;31;33454;-85
2023/12/19 04:39:37;;;;;;;;;;;;;;;1.50;74.37;100299.34;4499857;31;33254;-86
2023/12/19 04:42:07;;;;;;;;;;;;;;;1.75;73.33;100299.31;4502883;31;34915;-85
2023/12/19 04:44:34;;;;;;;;;;;;;;;1.64;74.04;100294.34;4512287;31;34864;-86
2023/12/19 04:47:02;;;;;;;;;;;;;;;1.37;74.89;100285.75;4488986;31;34472;-86
2023/12/19 04:49:29;;;;;;;;;;;;;;;1.40;74.37;100291.06;4498654;31;33525;-87
2023/12/19 04:51:56;;;;;;;;;;;;;;;1.97;72.75;100299.00;4504061;31;34815;-84
2023/12/19 04:54:24;;;;;;;;;;;;;;;1.74;73.05;100311.16;4502869;31;35136;-84
2023/12/19 04:56:51;;;;;;;;;;;;;;;1.20;74.69;100309.25;4510039;31;34494;-85
2023/12/19 04:59:18;;;;;;;;;;;;;;;0.98;74.47;100332.44;4512632;31;33168;-85
2023/12/19 05:01:46;;;;;;;;;;;;;;;1.46;73.97;100340.00;4505790;31;33923;-85
2023/12/19 05:04:13;;;;;;;;;;;;;;;1.62;73.62;100335.94;4508904;31;33604;-85
2023/12/19 05:06:40;;;;;;;;;;;;;;;1.88;72.44;100325.75;4504613;31;34900;-84
2023/12/19 05:09:08;;;;;;;;;;;;;;;1.46;74.23;100324.69;4498841;31;31893;-86
2023/12/19 05:11:36;;;;;;;;;;;;;;;1.44;74.11;100322.81;4511663;31;34279;-85
2023/12/19 05:14:03;;;;;;;;;;;;;;;1.62;73.38;100320.59;4508627;31;34354;-86
2023/12/19 05:16:30;;;;;;;;;;;;;;;1.91;72.46;100318.28;4508563;31;34368;-85
2023/12/19 05:18:57;;;;;;;;;;;;;;;1.64;73.03;100313.94;4514975;31;33336;-85
2023/12/19 05:21:25;;;;;;;;;;;;;;;1.76;72.52;100308.72;4509024;31;34844;-86
2023/12/19 05:23:52;;;;;;;;;;;;;;;1.50;73.30;100305.31;4504490;31;33892;-84
2023/12/19 05:26:19;;;;;;;;;;;;;;;1.25;73.97;100300.25;4510909;31;35241;-84
2023/12/19 05:28:47;;;;;;;;;;;;;;;1.05;74.92;100314.19;4514824;31;32912;-85
2023/12/19 05:31:16;;;;;;;;;;;;;;;1.00;75.15;100310.47;4505453;31;34328;-87
2023/12/19 05:33:44;;;;;;;;;;;;;;;0.81;75.63;100302.31;4493967;31;35208;-86
2023/12/19 05:36:12;;;;;;;;;;;;;;;0.85;75.36;100299.19;4513067;31;35078;-86
2023/12/19 05:38:40;;;;;;;;;;;;;;;0.54;75.86;100307.25;4489028;31;33422;-87
2023/12/19 05:41:08;;;;;;;;;;;;;;;0.67;74.71;100304.78;4483732;31;34143;-86
2023/12/19 05:43:35;;;;;;;;;;;;;;;0.69;75.75;100293.03;4510580;31;34286;-84
2023/12/19 05:46:03;;;;;;;;;;;;;;;0.70;75.82;100297.34;4508493;31;34464;-88
2023/12/19 05:48:30;;;;;;;;;;;;;;;0.48;76.37;100279.62;4508936;31;32219;-87
2023/12/19 05:50:59;;;;;;;;;;;;;;;0.80;75.70;100278.44;4506397;31;33998;-86
2023/12/19 05:53:27;;;;;;;;;;;;;;;0.84;74.90;100282.09;4504238;31;34177;-87
2023/12/19 05:55:55;;;;;;;;;;;;;;;0.37;75.92;100275.44;4508077;31;34277;-87
2023/12/19 05:58:22;;;;;;;;;;;;;;;1.09;75.06;100267.66;4494696;31;34045;-86
2023/12/19 06:00:49;;;;;;;;;;;;;;;1.46;73.57;100258.25;4486523;31;33372;-86
2023/12/19 06:03:17;;;;;;;;;;;;;;;1.41;74.14;100256.19;4484770;31;34294;-85
2023/12/19 06:05:44;;;;;;;;;;;;;;;1.43;73.94;100268.25;4505691;31;35103;-86
2023/12/19 06:08:12;;;;;;;;;;;;;;;1.82;73.02;100273.31;4514624;31;34177;-89
2023/12/19 06:10:39;;;;;;;;;;;;;;;1.63;73.43;100272.16;4513495;31;34859;-86
2023/12/19 06:13:07;;;;;;;;;;;;;;;1.49;73.69;100260.13;4513587;31;34261;-87
2023/12/19 06:15:34;;;;;;;;;;;;;;;1.94;72.20;100266.47;4504898;31;34876;-87
2023/12/19 06:18:01;;;;;;;;;;;;;;;1.95;71.87;100261.44;4494304;31;32273;-89
2023/12/19 06:20:29;;;;;;;;;;;;;;;1.92;71.80;100248.44;4515443;31;34544;-88
2023/12/19 06:22:57;;;;;;;;;;;;;;;0.89;74.71;100261.19;4512807;31;33983;-87
2023/12/19 06:25:25;;;;;;;;;;;;;;;1.58;72.97;100272.62;4513918;31;33878;-86
2023/12/19 06:27:52;;;;;;;;;;;;;;;1.60;72.15;100260.84;4493275;31;33478;-87
2023/12/19 06:30:20;;;;;;;;;;;;;;;0.97;74.04;100265.16;4505303;31;34691;-89
2023/12/19 06:32:56;;;;;;;;;;;;;;;1.18;72.99;100246.97;4502679;31;32509;-84
2023/12/19 06:35:27;;;;;;;;;;;;;;;1.25;72.69;100251.72;4512731;31;33789;-86
2023/12/19 06:37:54;;;;;;;;;;;;;;;1.26;72.95;100248.38;4498489;31;33404;-86
2023/12/19 06:40:23;;;;;;;;;;;;;;;1.23;73.51;100260.94;4504828;31;34262;-86
2023/12/19 06:42:50;;;;;;;;;;;;;;;0.99;74.07;100279.72;4511683;31;34208;-83
2023/12/19 06:45:18;;;;;;;;;;;;;;;1.24;73.71;100274.59;4494274;31;33988;-85
2023/12/19 06:47:46;;;;;;;;;;;;;;;1.32;73.44;100266.66;4504286;31;34283;-86
2023/12/19 06:50:15;;;;;;;;;;;;;;;1.74;71.47;100272.81;4508002;31;33734;-87
2023/12/19 06:52:42;;;;;;;;;;;;;;;1.30;73.38;100260.56;4502988;31;34845;-86
2023/12/19 06:55:10;;;;;;;;;;;;;;;1.50;71.91;100269.56;4507831;31;34457;-85
2023/12/19 06:57:38;;;;;;;;;;;;;;;1.21;73.42;100270.16;4506337;31;34558;-86
2023/12/19 07:00:06;;;;;;;;;;;;;;;1.12;73.28;100270.44;4505387;31;33540;-86
2023/12/19 07:02:35;;;;;;;;;;;;;;;1.88;71.83;100274.63;4510069;31;34100;-87
2023/12/19 07:05:03;;;;;;;;;;;;;;;0.67;74.70;100292.00;4496515;31;34021;-86
2023/12/19 07:07:31;;;;;;;;;;;;;;;0.56;75.73;100290.38;4505791;31;33613;-87
2023/12/19 07:09:58;;;;;;;;;;;;;;;0.45;76.64;100292.16;4499980;31;33944;-85
2023/12/19 07:12:26;;;;;;;;;;;;;;;1.04;74.81;100281.78;4508722;31;33835;-87
2023/12/19 07:14:53;;;;;;;;;;;;;;;1.37;73.32;100275.53;4491858;31;33701;-85
2023/12/19 07:17:22;;;;;;;;;;;;;;;1.25;74.44;100272.16;4505246;31;33611;-89
2023/12/19 07:19:49;;;;;;;;;;;;;;;1.11;74.36;100278.00;4505948;31;34319;-87
2023/12/19 07:22:16;;;;;;;;;;;;;;;0.77;75.67;100262.91;4504510;31;33705;-89
2023/12/19 07:24:44;;;;;;;;;;;;;;;0.35;75.67;100266.81;4512058;31;34172;-87
2023/12/19 07:27:11;;;;;;;;;;;;;;;0.72;75.79;100261.72;4509934;31;34013;-87
2023/12/19 07:29:39;;;;;;;;;;;;;;;0.19;77.31;100263.94;4494444;31;33824;-88
2023/12/19 07:32:07;;;;;;;;;;;;;;;0.15;76.64;100270.50;4500889;31;34911;-87
2023/12/19 07:34:34;;;;;;;;;;;;;;;-0.03;78.65;100285.34;4504277;31;34347;-88
2023/12/19 07:37:02;;;;;;;;;;;;;;;0.40;77.18;100293.50;4494381;31;32285;-88
2023/12/19 07:39:30;;;;;;;;;;;;;;;0.15;77.33;100296.00;4507039;31;34794;-87
2023/12/19 07:41:57;;;;;;;;;;;;;;;0.43;76.16;100311.59;4490788;31;34316;-90
2023/12/19 07:44:25;;;;;;;;;;;;;;;0.90;75.66;100292.72;4491990;31;34468;-88
2023/12/19 07:46:52;;;;;;;;;;;;;;;0.93;75.40;100283.59;4494122;31;34707;-87
2023/12/19 07:49:19;;;;;;;;;;;;;;;1.36;74.16;100271.19;4494663;31;34601;-87
2023/12/19 07:51:47;;;;;;;;;;;;;;;1.24;74.70;100275.47;4496162;31;203850;-85
2023/12/19 07:54:14;;;;;;;;;;;;;;;1.01;74.57;100276.47;4508751;31;33495;-87
2023/12/19 07:56:42;;;;;;;;;;;;;;;1.25;74.20;100281.47;4505115;31;33467;-87
2023/12/19 07:59:10;;;;;;;;;;;;;;;1.06;74.78;100280.25;4497606;31;33538;-87
2023/12/19 08:01:39;;;;;;;;;;;;;;;1.24;74.13;100274.59;4487427;31;34405;-88
2023/12/19 08:04:06;;;;;;;;;;;;;;;1.08;74.48;100285.44;4486225;31;33962;-87
2023/12/19 08:06:34;;;;;;;;;;;;;;;0.97;74.26;100280.47;4510149;31;33006;-88
2023/12/19 08:09:02;;;;;;;;;;;;;;;1.23;73.32;100281.37;4512765;31;34648;-87
2023/12/19 08:11:30;;;;;;;;;;;;;;;1.05;74.61;100295.44;4512909;31;35129;-87
2023/12/19 08:13:57;;;;;;;;;;;;;;;1.35;73.55;100289.84;4502500;31;35125;-87
2023/12/19 08:16:24;;;;;;;;;;;;;;;1.03;75.16;100291.91;4501628;31;33513;-88
2023/12/19 08:18:52;;;;;;;;;;;;;;;1.34;73.92;100288.09;4501035;31;34179;-88
2023/12/19 08:21:19;;;;;;;;;;;;;;;1.49;73.11;100292.47;4484900;31;34055;-89
2023/12/19 08:23:47;;;;;;;;;;;;;;;1.09;74.33;100294.87;4503130;31;33898;-88
2023/12/19 08:26:15;;;;;;;;;;;;;;;1.32;73.62;100298.97;4510427;31;33130;-88
2023/12/19 08:28:42;;;;;;;;;;;;;;;1.35;73.50;100294.97;4500261;31;34010;-89
2023/12/19 08:31:09;;;;;;;;;;;;;;;1.30;73.59;100301.44;4503778;31;35062;-88
2023/12/19 08:33:41;;;;;;;;;;;;;;;1.24;73.85;100288.25;4510336;31;34360;-86
2023/12/19 08:36:08;;;;;;;;;;;;;;;0.85;75.51;100299.19;4491337;31;33129;-87
2023/12/19 08:38:55;;;;;;;;;;;;;;;1.03;75.04;100297.91;4501387;31;34437;-87
2023/12/19 08:41:24;;;;;;;;;;;;;;;1.26;74.85;100299.47;4503087;31;34234;-86
2023/12/19 08:43:51;;;;;;;;;;;;;;;0.75;76.56;100306.97;4505685;31;34334;-86
2023/12/19 08:46:19;;;;;;;;;;;;;;;1.06;75.60;100305.78;4504940;31;33127;-88
2023/12/19 08:48:47;;;;;;;;;;;;;;;1.09;75.32;100305.09;4495537;31;34049;-84
2023/12/19 08:51:15;;;;;;;;;;;;;;;1.03;74.66;100299.56;4492810;31;33722;-88
2023/12/19 08:53:42;;;;;;;;;;;;;;;1.01;75.82;100304.56;4504615;31;34963;-88
2023/12/19 08:56:10;;;;;;;;;;;;;;;0.89;75.75;100296.94;4508650;31;34031;-89
2023/12/19 08:58:37;;;;;;;;;;;;;;;1.03;75.74;100291.91;4514947;31;34168;-86
2023/12/19 09:01:04;;;;;;;;;;;;;;;0.92;76.39;100276.75;4507387;31;35130;-86
2023/12/19 09:03:32;;;;;;;;;;;;;;;0.84;77.06;100277.00;4508767;31;34447;-88
2023/12/19 09:06:01;;;;;;;;;;;;;;;0.83;76.93;100268.44;4512251;31;33663;-87
2023/12/19 09:08:28;;;;;;;;;;;;;;;1.25;76.08;100266.12;4490816;31;32645;-86
2023/12/19 09:10:55;;;;;;;;;;;;;;;1.18;76.46;100264.88;4514388;31;34394;-87
2023/12/19 09:13:23;;;;;;;;;;;;;;;1.30;76.32;100250.34;4482976;31;34453;-88
2023/12/19 09:15:50;;;;;;;;;;;;;;;1.23;76.40;100257.50;4511557;31;33506;-89
2023/12/19 09:18:18;;;;;;;;;;;;;;;1.27;76.13;100256.91;4489796;31;34168;-88
2023/12/19 09:20:45;;;;;;;;;;;;;;;1.57;76.17;100260.63;4503259;31;34279;-88
2023/12/19 09:23:13;;;;;;;;;;;;;;;1.53;75.10;100249.31;4484326;31;33799;-89
2023/12/19 09:25:40;;;;;;;;;;;;;;;1.49;74.81;100238.78;4499600;31;33760;-88
2023/12/19 09:28:07;;;;;;;;;;;;;;;1.98;74.43;100231.75;4512371;31;33720;-89
2023/12/19 09:30:35;;;;;;;;;;;;;;;2.24;73.79;100224.03;4472646;31;34433;-88
2023/12/19 09:33:02;;;;;;;;;;;;;;;2.37;73.59;100213.78;4485575;31;34959;-89
2023/12/19 09:35:30;;;;;;;;;;;;;;;1.88;75.09;100215.81;4498317;31;33581;-87
2023/12/19 09:38:01;;;;;;;;;;;;;;;1.70;76.12;100218.09;4501190;31;34574;-88
2023/12/19 09:40:29;;;;;;;;;;;;;;;1.81;75.36;100208.53;4487869;31;34252;-87
2023/12/19 09:42:59;;;;;;;;;;;;;;;2.14;74.53;100207.22;4482595;31;33712;-88
2023/12/19 09:45:27;;;;;;;;;;;;;;;1.97;75.22;100199.25;4494683;31;33222;-89
2023/12/19 09:47:58;;;;;;;;;;;;;;;2.25;74.45;100178.88;4493132;31;34094;-87
2023/12/19 09:50:27;;;;;;;;;;;;;;;1.80;74.87;100167.53;4515514;31;34406;-87
2023/12/19 09:52:56;;;;;;;;;;;;;;;1.75;75.29;100168.91;4501246;31;34285;-88
2023/12/19 09:55:25;;;;;;;;;;;;;;;1.88;75.43;100169.78;4483863;31;33593;-87
2023/12/19 09:57:52;;;;;;;;;;;;;;;1.92;75.33;100158.94;4462733;31;33197;-87
2023/12/19 10:00:21;;;;;;;;;;;;;;;1.79;76.68;100156.41;4495421;31;34767;-87
2023/12/19 10:02:48;;;;;;;;;;;;;;;2.35;74.58;100142.81;4484985;31;34377;-88
2023/12/19 10:05:15;;;;;;;;;;;;;;;2.11;75.92;100144.75;4472156;31;33182;-88
2023/12/19 10:07:42;;;;;;;;;;;;;;;2.12;75.71;100136.28;4487758;31;34136;-87
2023/12/19 10:10:11;;;;;;;;;;;;;;;2.08;75.76;100134.31;4515210;31;33973;-89
2023/12/19 10:12:49;;;;;;;;;;;;;;;1.94;76.25;100130.94;4473109;31;33611;-89
2023/12/19 10:15:25;;;;;;;;;;;;;;;2.03;76.04;100125.50;4486060;31;33498;-89
2023/12/19 10:18:10;;;;;;;;;;;;;;;2.50;74.34;100114.69;4498579;31;34329;-89
2023/12/19 10:20:40;;;;;;;;;;;;;;;2.42;74.75;100110.03;4472284;31;34363;-86
2023/12/19 10:23:09;;;;;;;;;;;;;;;2.39;75.51;100114.06;4490268;31;34575;-88
2023/12/19 10:25:36;;;;;;;;;;;;;;;1.75;76.60;100111.00;4472363;31;32582;-86
2023/12/19 10:28:13;;;;;;;;;;;;;;;1.86;76.13;100097.22;4475098;31;33864;-88
2023/12/19 10:30:42;;;;;;;;;;;;;;;2.27;74.84;100096.28;4488108;31;34360;-88
2023/12/19 10:33:12;;;;;;;;;;;;;;;1.69;75.00;100093.59;4487963;31;34333;-88
2023/12/19 10:35:41;;;;;;;;;;;;;;;1.51;77.13;100104.31;4501298;31;34245;-89
2023/12/19 10:38:08;;;;;;;;;;;;;;;2.03;75.67;100088.00;4499189;31;33864;-89
2023/12/19 10:40:37;;;;;;;;;;;;;;;1.99;75.87;100095.41;4481527;31;33967;-88
2023/12/19 10:43:05;;;;;;;;;;;;;;;2.37;74.94;100088.37;4501532;31;34099;-88
2023/12/19 10:45:33;;;;;;;;;;;;;;;2.33;74.08;100093.22;4500005;31;32774;-89
2023/12/19 10:48:01;;;;;;;;;;;;;;;2.41;74.19;100095.44;4484963;31;34609;-89
2023/12/19 10:50:28;;;;;;;;;;;;;;;2.20;74.54;100078.81;4487608;31;34137;-89
2023/12/19 10:52:59;;;;;;;;;;;;;;;2.12;75.03;100069.78;4499652;31;34438;-89
2023/12/19 10:55:27;;;;;;;;;;;;;;;2.49;74.28;100079.66;4486055;31;33281;-88
2023/12/19 10:57:54;;;;;;;;;;;;;;;2.07;75.26;100069.50;4485349;31;34225;-89
2023/12/19 11:00:22;;;;;;;;;;;;;;;2.50;74.05;100061.84;4500201;31;34123;-89
2023/12/19 11:02:59;;;;;;;;;;;;;;;2.58;73.75;100065.75;4500906;31;34078;-89
2023/12/19 11:05:29;;;;;;;;;;;;;;;2.30;75.08;100054.66;4499337;31;33380;-89
2023/12/19 11:07:58;;;;;;;;;;;;;;;2.78;73.60;100051.53;4515318;31;34033;-89
2023/12/19 11:10:25;;;;;;;;;;;;;;;3.11;72.80;100049.12;4500902;31;34678;-89
2023/12/19 11:12:53;;;;;;;;;;;;;;;3.00;73.17;100048.53;4500725;31;35041;-89
2023/12/19 11:15:21;;;;;;;;;;;;;;;2.88;73.21;100053.84;4490191;31;33487;-89
2023/12/19 11:17:51;;;;;;;;;;;;;;;3.25;71.50;100037.97;4485000;31;33916;-88
2023/12/19 11:20:30;;;;;;;;;;;;;;;3.51;70.96;100038.53;4485182;31;34114;-88
2023/12/19 11:23:24;;;;;;;;;;;;;;;2.72;73.56;100040.03;4472634;31;33799;-89
2023/12/19 11:25:54;;;;;;;;;;;;;;;2.32;75.20;100033.50;4485167;31;33598;-89
2023/12/19 11:28:21;;;;;;;;;;;;;;;2.34;75.19;100020.78;4495937;31;33909;-88
2023/12/19 11:30:49;;;;;;;;;;;;;;;1.78;76.72;100016.59;4491156;31;33526;-86
2023/12/19 11:33:26;;;;;;;;;;;;;;;2.28;75.22;100002.53;4477162;31;34250;-87
2023/12/19 11:35:54;;;;;;;;;;;;;;;2.63;74.40;99999.44;4483312;31;33411;-87
2023/12/19 11:38:25;;;;;;;;;;;;;;;1.41;76.66;100006.66;4514020;31;33954;-87
2023/12/19 11:40:53;;;;;;;;;;;;;;;1.90;76.25;99998.56;4500861;31;33875;-87
2023/12/19 11:43:27;;;;;;;;;;;;;;;2.14;75.42;100005.12;4500815;31;34475;-88
2023/12/19 11:45:58;;;;;;;;;;;;;;;1.62;75.78;100007.09;4514908;31;33302;-86
2023/12/19 11:48:35;;;;;;;;;;;;;;;2.11;75.08;100007.50;4500504;31;34542;-84
2023/12/19 11:51:09;;;;;;;;;;;;;;;2.42;73.81;100005.09;4514762;31;35228;-85
2023/12/19 11:53:37;;;;;;;;;;;;;;;2.42;74.60;100001.62;4500586;31;34990;-85
2023/12/19 11:56:11;;;;;;;;;;;;;;;2.49;73.92;100005.44;4500354;31;33650;-86
2023/12/19 11:58:45;;;;;;;;;;;;;;;2.00;75.36;100007.66;4513809;31;34037;-88
2023/12/19 12:01:13;;;;;;;;;;;;;;;2.50;73.89;100007.19;4511121;31;34917;-88
2023/12/19 12:03:41;;;;;;;;;;;;;;;2.60;73.92;100001.81;4498774;31;33873;-88
2023/12/19 12:06:10;;;;;;;;;;;;;;;2.78;73.45;99995.19;4514548;31;34075;-88
2023/12/19 12:08:39;;;;;;;;;;;;;;;2.02;74.57;100000.97;4510024;31;34090;-89
2023/12/19 12:11:07;;;;;;;;;;;;;;;2.06;75.49;99991.00;4511859;31;34199;-84
2023/12/19 12:13:35;;;;;;;;;;;;;;;2.49;74.03;99990.97;4514396;31;34112;-88
2023/12/19 12:16:03;;;;;;;;;;;;;;;2.37;75.19;99992.81;4514508;31;33010;-89
2023/12/19 12:18:31;;;;;;;;;;;;;;;2.27;75.52;99993.94;4513500;31;34186;-87
2023/12/19 12:21:08;;;;;;;;;;;;;;;1.74;76.87;99989.06;4500687;31;35019;-94
2023/12/19 12:23:36;;;;;;;;;;;;;;;1.76;77.77;99992.59;4499893;31;33284;-88
2023/12/19 12:26:05;;;;;;;;;;;;;;;2.14;76.70;99987.22;4499433;31;33418;-88
2023/12/19 12:28:34;;;;;;;;;;;;;;;2.23;76.16;99980.88;4500223;31;34045;-87
2023/12/19 12:31:03;;;;;;;;;;;;;;;2.24;75.97;99968.19;4514369;31;34247;-86
2023/12/19 12:33:31;;;;;;;;;;;;;;;2.05;76.75;99965.34;4499996;31;34846;-88
2023/12/19 12:35:59;;;;;;;;;;;;;;;1.91;76.57;99957.75;4498262;31;33603;-88
2023/12/19 12:38:26;;;;;;;;;;;;;;;2.36;75.32;99956.13;4513905;31;34853;-86
2023/12/19 12:40:59;;;;;;;;;;;;;;;2.56;75.07;99946.13;4511247;31;33877;-85
2023/12/19 12:43:34;;;;;;;;;;;;;;;2.82;74.24;99934.81;4504168;31;34442;-85
2023/12/19 12:46:02;;;;;;;;;;;;;;;2.63;73.92;99931.19;4503893;31;33553;-90
2023/12/19 12:48:30;;;;;;;;;;;;;;;2.22;75.04;99926.28;4498287;31;34269;-85
2023/12/19 12:50:57;;;;;;;;;;;;;;;1.82;76.77;99930.72;4483409;31;34652;-87
2023/12/19 12:53:24;;;;;;;;;;;;;;;2.37;75.28;99932.28;4483784;31;34460;-86